Time;durP1;ratioP1;P1;durP2;ratioP2;P2;SDS_P1;SDS_P2;PMS_P1;PMS_P2;Temp;Humidity;BMP_temperature;BMP_pressure;BME280_temperature;BME280_humidity;BME280_pressure;Samples;Min_cycle;Max_cycle;Signal;HPM_P1;HPM_P2
2021/11/05 00:00:52;;;;;;;10.20;6.90;;;9.10;99.90;;;;;;5044274;28;20049;-86
2021/11/05 00:03:17;;;;;;;10.60;6.20;;;7.90;99.90;;;;;;5029644;28;20033;-86
2021/11/05 00:05:43;;;;;;;12.43;6.93;;;7.90;99.90;;;;;;5028528;28;20033;-87
2021/11/05 00:08:10;;;;;;;10.80;6.78;;;9.70;99.90;;;;;;5027411;28;20033;-84
2021/11/05 00:10:41;;;;;;;14.25;7.50;;;7.90;99.90;;;;;;5029269;28;20024;-87
2021/11/05 00:13:08;;;;;;;11.20;6.32;;;8.00;99.90;;;;;;5019350;28;20086;-88
2021/11/05 00:15:34;;;;;;;10.90;6.97;;;8.00;99.90;;;;;;5029510;28;20021;-86
2021/11/05 00:18:00;;;;;;;10.40;6.78;;;7.90;99.90;;;;;;5025832;28;20033;-83
2021/11/05 00:20:26;;;;;;;11.43;7.05;;;8.00;99.90;;;;;;5030286;28;20029;-87
2021/11/05 00:22:52;;;;;;;11.75;7.25;;;8.00;99.90;;;;;;5032620;28;20102;-83
2021/11/05 00:25:18;;;;;;;10.80;6.90;;;8.00;99.90;;;;;;5040280;28;20025;-87
2021/11/05 00:27:44;;;;;;;11.35;7.05;;;8.00;99.90;;;;;;5039306;28;20056;-87
2021/11/05 00:30:12;;;;;;;10.75;6.63;;;9.60;99.90;;;;;;5037051;28;20028;-83
2021/11/05 00:32:38;;;;;;;8.93;6.57;;;8.00;99.90;;;;;;5030770;28;20040;-84
2021/11/05 00:35:05;;;;;;;12.05;7.15;;;9.30;99.90;;;;;;5037150;28;20049;-85
2021/11/05 00:37:30;;;;;;;10.85;7.13;;;7.50;99.90;;;;;;5027961;28;20327;-85
2021/11/05 00:39:56;;;;;;;10.80;7.28;;;7.80;99.90;;;;;;5037221;28;20064;-87
2021/11/05 00:42:22;;;;;;;10.75;6.63;;;8.30;99.90;;;;;;5017090;28;21125;-86
2021/11/05 00:44:48;;;;;;;10.88;6.90;;;8.10;99.90;;;;;;5020298;28;20433;-82
2021/11/05 00:47:15;;;;;;;12.52;7.30;;;8.40;99.90;;;;;;5026075;28;21653;-85
2021/11/05 00:49:42;;;;;;;10.35;6.70;;;10.20;99.90;;;;;;5030640;28;20070;-86
2021/11/05 00:52:07;;;;;;;11.00;7.50;;;7.90;99.90;;;;;;5027592;28;20123;-84
2021/11/05 00:54:33;;;;;;;11.15;7.00;;;8.00;99.90;;;;;;5025074;28;20143;-86
2021/11/05 00:56:59;;;;;;;10.75;6.75;;;8.00;99.90;;;;;;5037167;28;20012;-86
2021/11/05 00:59:25;;;;;;;9.07;6.50;;;8.00;99.90;;;;;;5025850;28;20035;-87
2021/11/05 01:01:50;;;;;;;11.85;7.20;;;9.60;99.90;;;;;;5027871;28;20025;-87
2021/11/05 01:04:16;;;;;;;9.30;7.00;;;8.00;99.90;;;;;;5025838;28;20089;-82
2021/11/05 01:06:42;;;;;;;11.38;7.00;;;8.00;99.90;;;;;;5023987;28;20025;-85
2021/11/05 01:09:10;;;;;;;11.25;7.20;;;8.00;99.90;;;;;;5022141;28;20044;-87
2021/11/05 01:11:36;;;;;;;10.23;6.97;;;8.70;99.90;;;;;;5027697;28;20021;-86
2021/11/05 01:14:04;;;;;;;10.05;6.70;;;8.00;99.90;;;;;;5030736;28;20032;-86
2021/11/05 01:16:30;;;;;;;12.95;7.47;;;8.10;99.90;;;;;;5037068;28;20029;-84
2021/11/05 01:18:56;;;;;;;10.95;7.20;;;8.10;99.90;;;;;;5050175;28;20605;-87
2021/11/05 01:21:21;;;;;;;9.60;6.43;;;8.10;99.90;;;;;;5028436;28;20354;-86
2021/11/05 01:23:47;;;;;;;10.10;6.70;;;8.10;99.90;;;;;;5031851;28;20104;-86
2021/11/05 01:26:13;;;;;;;11.85;7.88;;;8.10;99.90;;;;;;5024794;28;20093;-85
2021/11/05 01:28:39;;;;;;;11.40;6.97;;;8.10;99.90;;;;;;5026061;28;20073;-86
2021/11/05 01:31:05;;;;;;;10.18;6.72;;;9.40;99.90;;;;;;5030873;28;20033;-87
2021/11/05 01:33:31;;;;;;;11.27;7.70;;;8.20;99.90;;;;;;5064677;28;20017;-85
2021/11/05 01:35:57;;;;;;;11.30;7.40;;;8.10;99.90;;;;;;5046641;28;20025;-87
2021/11/05 01:38:23;;;;;;;10.77;7.47;;;8.10;99.90;;;;;;5046699;28;20051;-82
2021/11/05 01:40:49;;;;;;;13.95;7.22;;;9.60;99.90;;;;;;5037097;28;20045;-81
2021/11/05 01:43:15;;;;;;;11.40;7.57;;;8.10;99.90;;;;;;5030012;28;20017;-81
2021/11/05 01:45:43;;;;;;;11.23;7.47;;;8.10;99.90;;;;;;5029247;28;20024;-88
2021/11/05 01:48:09;;;;;;;11.80;8.02;;;8.80;99.90;;;;;;5027251;28;20122;-85
2021/11/05 01:50:34;;;;;;;13.85;9.50;;;8.90;99.90;;;;;;5034433;28;20029;-85
2021/11/05 01:53:00;;;;;;;13.73;8.43;;;8.10;99.90;;;;;;5031560;28;20061;-84
2021/11/05 01:55:26;;;;;;;11.88;7.60;;;9.40;99.90;;;;;;5023565;28;20025;-86
2021/11/05 01:57:52;;;;;;;12.52;8.23;;;8.30;99.90;;;;;;5022219;28;20030;-82
2021/11/05 02:00:22;;;;;;;14.43;8.38;;;8.30;99.90;;;;;;5025115;28;20240;-84
2021/11/05 02:02:50;;;;;;;12.48;8.32;;;9.90;99.90;;;;;;5035861;28;20017;-86
2021/11/05 02:05:15;;;;;;;12.57;8.32;;;9.30;99.90;;;;;;5048153;28;20029;-87
2021/11/05 02:07:45;;;;;;;12.98;7.75;;;8.20;99.90;;;;;;5025532;28;20052;-83
2021/11/05 02:10:12;;;;;;;12.38;8.13;;;8.20;99.90;;;;;;5024834;28;20095;-85
2021/11/05 02:12:38;;;;;;;12.57;8.52;;;8.20;99.90;;;;;;5025122;28;20248;-86
2021/11/05 02:15:05;;;;;;;10.35;8.02;;;9.30;99.90;;;;;;5048269;28;20055;-85
2021/11/05 02:17:31;;;;;;;13.48;8.30;;;8.10;99.90;;;;;;5031920;28;20025;-85
2021/11/05 02:19:58;;;;;;;12.90;8.48;;;9.50;99.90;;;;;;5029999;28;20040;-86
2021/11/05 02:22:24;;;;;;;14.02;8.10;;;8.20;99.90;;;;;;5030060;28;20036;-84
2021/11/05 02:24:50;;;;;;;15.63;8.95;;;9.70;99.90;;;;;;5031049;28;20485;-85
2021/11/05 02:27:18;;;;;;;14.52;8.57;;;8.10;99.90;;;;;;5025690;28;20027;-84
2021/11/05 02:29:44;;;;;;;11.75;8.00;;;8.50;99.90;;;;;;5026492;28;20033;-85
2021/11/05 02:32:09;;;;;;;14.02;8.43;;;9.00;99.90;;;;;;5025079;28;20025;-85
2021/11/05 02:34:35;;;;;;;14.05;8.55;;;9.30;99.90;;;;;;5031052;28;20029;-86
2021/11/05 02:37:03;;;;;;;13.50;8.93;;;8.10;99.90;;;;;;5030306;28;20033;-85
2021/11/05 02:39:30;;;;;;;12.60;8.55;;;8.10;99.90;;;;;;5024713;28;20049;-85
2021/11/05 02:41:55;;;;;;;19.10;9.45;;;9.40;99.90;;;;;;5025127;28;20029;-84
2021/11/05 02:44:22;;;;;;;13.57;8.70;;;8.20;99.90;;;;;;5027676;28;20036;-85
2021/11/05 02:46:48;;;;;;;12.43;9.32;;;8.20;99.90;;;;;;5030359;28;20556;-87
2021/11/05 02:49:16;;;;;;;13.98;8.55;;;8.20;99.90;;;;;;5047004;28;20334;-86
2021/11/05 02:51:43;;;;;;;12.70;8.70;;;9.30;99.90;;;;;;5024388;28;20044;-85
2021/11/05 02:54:09;;;;;;;13.65;9.10;;;8.20;99.90;;;;;;5031416;28;20058;-86
2021/11/05 02:56:35;;;;;;;18.67;11.15;;;8.70;99.90;;;;;;5026940;28;20025;-85
2021/11/05 02:59:01;;;;;;;15.35;9.48;;;9.40;99.90;;;;;;5028412;28;20397;-86
2021/11/05 03:01:27;;;;;;;12.00;8.55;;;8.30;99.90;;;;;;5026595;28;20021;-82
2021/11/05 03:03:57;;;;;;;12.85;8.65;;;8.30;99.90;;;;;;5024116;28;20529;-85
2021/11/05 03:06:23;;;;;;;12.63;9.48;;;8.30;99.90;;;;;;5031499;28;20098;-84
2021/11/05 03:08:49;;;;;;;13.25;8.40;;;9.40;99.90;;;;;;5029982;28;20128;-85
2021/11/05 03:11:14;;;;;;;13.80;9.00;;;8.80;99.90;;;;;;5050951;28;20033;-85
2021/11/05 03:13:42;;;;;;;13.70;8.38;;;8.10;99.90;;;;;;5031265;28;20025;-83
2021/11/05 03:16:10;;;;;;;15.75;9.07;;;9.10;99.90;;;;;;5042032;28;20082;-85
2021/11/05 03:18:39;;;;;;;15.23;8.35;;;8.30;99.90;;;;;;5029584;28;20040;-86
2021/11/05 03:21:06;;;;;;;14.40;9.10;;;10.10;99.90;;;;;;5025672;28;20481;-86
2021/11/05 03:23:31;;;;;;;14.38;8.80;;;9.20;99.90;;;;;;5028032;28;20025;-86
2021/11/05 03:25:57;;;;;;;15.43;9.13;;;8.30;99.90;;;;;;5035757;28;20029;-87
2021/11/05 03:28:23;;;;;;;13.40;9.07;;;9.70;99.90;;;;;;5034856;28;20179;-85
2021/11/05 03:30:48;;;;;;;14.15;9.05;;;8.30;99.90;;;;;;5033388;28;20473;-85
2021/11/05 03:33:14;;;;;;;15.02;9.52;;;8.30;99.90;;;;;;5030068;28;20519;-84
2021/11/05 03:35:40;;;;;;;14.18;9.38;;;9.00;99.90;;;;;;5030181;28;20036;-86
2021/11/05 03:38:06;;;;;;;13.40;9.05;;;9.40;99.90;;;;;;5030850;28;20041;-85
2021/11/05 03:40:33;;;;;;;15.00;8.90;;;10.50;99.90;;;;;;5027296;28;20089;-84
2021/11/05 03:42:59;;;;;;;13.73;8.77;;;8.50;99.90;;;;;;5028503;28;20115;-83
2021/11/05 03:45:25;;;;;;;13.38;9.48;;;8.40;99.90;;;;;;5026705;28;20120;-86
2021/11/05 03:47:50;;;;;;;15.15;9.20;;;8.50;99.90;;;;;;5026259;28;20116;-85
2021/11/05 03:50:16;;;;;;;18.33;10.05;;;9.10;99.90;;;;;;5034143;28;20034;-84
2021/11/05 03:52:42;;;;;;;17.63;10.52;;;8.40;99.90;;;;;;5034604;28;20040;-86
2021/11/05 03:55:08;;;;;;;14.70;9.38;;;9.60;99.90;;;;;;5032582;28;20036;-85
2021/11/05 03:57:34;;;;;;;14.10;9.15;;;7.90;99.90;;;;;;5035053;28;20060;-86
2021/11/05 04:00:00;;;;;;;14.05;9.32;;;9.30;99.90;;;;;;5031350;28;20055;-87
2021/11/05 04:02:25;;;;;;;17.15;9.38;;;8.40;99.90;;;;;;5033462;28;20029;-86
2021/11/05 04:04:54;;;;;;;16.83;9.93;;;8.40;99.90;;;;;;5031110;28;20033;-86
2021/11/05 04:07:21;;;;;;;17.67;9.50;;;8.40;99.90;;;;;;5033925;28;20394;-86
2021/11/05 04:09:47;;;;;;;20.10;11.05;;;9.70;99.90;;;;;;5026270;28;20028;-86
2021/11/05 04:12:12;;;;;;;17.20;10.00;;;8.40;99.90;;;;;;5030006;28;20033;-86
2021/11/05 04:14:38;;;;;;;15.75;10.02;;;8.70;99.90;;;;;;5030972;28;20059;-85
2021/11/05 04:17:04;;;;;;;17.83;10.32;;;9.70;99.90;;;;;;5037348;28;20028;-83
2021/11/05 04:19:29;;;;;;;15.10;9.85;;;8.30;99.90;;;;;;5030208;28;20082;-87
2021/11/05 04:21:55;;;;;;;15.68;10.13;;;8.40;99.90;;;;;;5032099;28;20017;-86
2021/11/05 04:24:21;;;;;;;17.02;9.98;;;8.50;99.90;;;;;;5024237;28;20021;-83
2021/11/05 04:26:46;;;;;;;18.55;10.55;;;8.40;99.90;;;;;;5029202;28;20083;-82
2021/11/05 04:29:12;;;;;;;15.43;9.60;;;8.50;99.90;;;;;;5027425;28;20032;-87
2021/11/05 04:31:38;;;;;;;18.13;10.75;;;8.40;99.90;;;;;;5024822;28;20389;-83
2021/11/05 04:34:04;;;;;;;15.93;10.05;;;9.40;99.90;;;;;;5031674;28;20116;-86
2021/11/05 04:36:33;;;;;;;18.98;11.00;;;8.40;99.90;;;;;;5030717;28;20380;-87
2021/11/05 04:38:59;;;;;;;17.67;10.73;;;9.20;99.90;;;;;;5031741;28;20040;-85
2021/11/05 04:41:25;;;;;;;15.85;10.07;;;8.40;99.90;;;;;;5033414;28;20047;-86
2021/11/05 04:43:51;;;;;;;18.30;10.32;;;8.40;99.90;;;;;;5029802;28;20025;-86
2021/11/05 04:46:17;;;;;;;15.95;10.27;;;9.80;99.90;;;;;;5034386;28;20022;-86
2021/11/05 04:48:43;;;;;;;17.45;10.55;;;8.50;99.90;;;;;;5036721;28;20046;-86
2021/11/05 04:51:09;;;;;;;20.38;10.25;;;9.00;99.90;;;;;;5034828;28;20041;-86
2021/11/05 04:53:34;;;;;;;18.10;11.00;;;8.40;99.90;;;;;;5039029;28;20025;-83
2021/11/05 04:56:01;;;;;;;19.33;11.38;;;8.40;99.90;;;;;;5032259;28;20483;-87
2021/11/05 04:58:27;;;;;;;16.95;10.55;;;8.50;99.90;;;;;;5043332;28;20037;-87
2021/11/05 05:00:53;;;;;;;17.33;10.75;;;8.50;99.90;;;;;;5034274;28;20028;-86
2021/11/05 05:03:19;;;;;;;18.95;11.80;;;8.50;99.90;;;;;;5043156;28;20025;-84
2021/11/05 05:05:45;;;;;;;18.58;11.32;;;8.50;99.90;;;;;;5060403;28;20092;-86
2021/11/05 05:08:11;;;;;;;19.67;11.13;;;8.50;99.90;;;;;;5058112;28;20778;-83
2021/11/05 05:10:37;;;;;;;17.92;11.73;;;9.20;99.90;;;;;;5049070;28;20063;-83
2021/11/05 05:13:02;;;;;;;17.48;11.18;;;8.60;99.90;;;;;;5054258;28;20095;-86
2021/11/05 05:15:28;;;;;;;19.08;11.30;;;8.60;99.90;;;;;;5043415;28;20037;-87
2021/11/05 05:17:54;;;;;;;19.58;11.77;;;8.60;99.90;;;;;;5034444;28;20029;-85
2021/11/05 05:20:20;;;;;;;19.75;11.93;;;8.60;99.90;;;;;;5026348;28;20029;-84
2021/11/05 05:22:47;;;;;;;18.95;11.63;;;8.60;99.90;;;;;;5035415;28;20021;-86
2021/11/05 05:25:14;;;;;;;18.48;11.57;;;8.70;99.90;;;;;;5027731;28;20025;-84
2021/11/05 05:27:41;;;;;;;21.17;11.90;;;8.60;99.90;;;;;;5026929;28;20440;-84
2021/11/05 05:30:10;;;;;;;19.17;11.18;;;8.80;99.90;;;;;;5031518;28;20029;-85
2021/11/05 05:32:35;;;;;;;21.77;12.27;;;8.60;99.90;;;;;;5024085;28;20090;-83
2021/11/05 05:35:01;;;;;;;19.77;11.90;;;8.60;99.90;;;;;;5040299;28;21851;-83
2021/11/05 05:37:27;;;;;;;18.27;11.15;;;8.50;99.90;;;;;;5034126;28;20032;-85
2021/11/05 05:39:53;;;;;;;19.10;11.90;;;8.60;99.90;;;;;;5046022;28;20029;-82
2021/11/05 05:42:19;;;;;;;20.70;12.05;;;9.80;99.90;;;;;;5031618;28;20079;-86
2021/11/05 05:44:44;;;;;;;22.08;13.40;;;9.30;99.90;;;;;;5024782;28;20022;-81
2021/11/05 05:47:10;;;;;;;20.65;12.30;;;8.70;99.90;;;;;;5022427;28;20040;-83
2021/11/05 05:49:36;;;;;;;21.02;12.20;;;8.50;99.90;;;;;;5043971;28;20053;-85
2021/11/05 05:52:02;;;;;;;21.48;13.18;;;8.50;99.90;;;;;;5026494;28;20464;-83
2021/11/05 05:54:28;;;;;;;19.00;11.55;;;8.60;99.90;;;;;;5030542;28;20030;-82
2021/11/05 05:56:54;;;;;;;21.67;12.02;;;8.50;99.90;;;;;;5032626;28;20137;-85
2021/11/05 05:59:19;;;;;;;22.23;12.75;;;9.30;99.90;;;;;;5025234;28;20032;-83
2021/11/05 06:01:45;;;;;;;26.75;12.77;;;8.60;99.90;;;;;;5027169;28;20115;-86
2021/11/05 06:04:11;;;;;;;22.35;15.25;;;8.40;99.90;;;;;;5027218;28;20029;-82
2021/11/05 06:06:37;;;;;;;21.27;13.23;;;8.50;99.90;;;;;;5025994;28;20435;-86
2021/11/05 06:09:03;;;;;;;19.58;12.23;;;8.70;99.90;;;;;;5024699;28;20028;-82
2021/11/05 06:11:29;;;;;;;18.20;11.45;;;9.90;99.90;;;;;;5021401;28;20024;-83
2021/11/05 06:13:54;;;;;;;21.08;12.30;;;8.60;99.90;;;;;;5028798;28;20017;-85
2021/11/05 06:16:20;;;;;;;21.13;12.68;;;8.60;99.90;;;;;;5030630;28;20167;-85
2021/11/05 06:18:46;;;;;;;23.65;13.65;;;8.60;99.90;;;;;;5031222;28;20029;-86
2021/11/05 06:21:12;;;;;;;23.42;13.07;;;10.40;99.90;;;;;;5029036;28;20024;-84
2021/11/05 06:23:38;;;;;;;27.00;15.88;;;8.50;99.90;;;;;;5049472;28;20088;-86
2021/11/05 06:26:04;;;;;;;23.17;13.25;;;10.00;99.90;;;;;;5035787;28;20041;-85
2021/11/05 06:28:29;;;;;;;22.77;13.35;;;8.60;99.90;;;;;;5040247;28;20041;-82
2021/11/05 06:30:55;;;;;;;22.95;13.45;;;8.50;99.90;;;;;;5029336;28;20032;-82
2021/11/05 06:33:21;;;;;;;23.75;13.88;;;8.90;99.90;;;;;;5035968;28;20490;-85
2021/11/05 06:35:47;;;;;;;23.85;13.30;;;8.50;99.90;;;;;;5024292;28;20032;-83
2021/11/05 06:38:13;;;;;;;20.92;13.30;;;8.50;99.90;;;;;;5028609;28;20044;-85
2021/11/05 06:40:42;;;;;;;23.30;12.98;;;8.40;99.90;;;;;;5035858;28;20053;-83
2021/11/05 06:43:09;;;;;;;22.38;13.40;;;8.40;99.90;;;;;;5034008;28;20503;-83
2021/11/05 06:45:34;;;;;;;24.02;13.23;;;8.40;99.90;;;;;;5037555;28;20032;-86
2021/11/05 06:48:00;;;;;;;20.35;13.00;;;8.40;99.90;;;;;;5034505;28;20513;-84
2021/11/05 06:50:26;;;;;;;24.77;13.75;;;8.40;99.90;;;;;;5052428;28;20033;-85
2021/11/05 06:52:52;;;;;;;20.88;13.13;;;8.30;99.90;;;;;;5029556;28;20021;-82
2021/11/05 06:55:17;;;;;;;23.00;13.98;;;8.40;99.90;;;;;;5033066;28;20025;-84
2021/11/05 06:57:43;;;;;;;23.73;13.75;;;8.30;99.90;;;;;;5034958;28;20058;-82
2021/11/05 07:00:12;;;;;;;25.65;14.15;;;8.30;99.90;;;;;;5025726;28;20033;-87
2021/11/05 07:02:42;;;;;;;21.67;13.60;;;8.30;99.90;;;;;;5035675;28;20120;-86
2021/11/05 07:05:13;;;;;;;23.40;13.52;;;8.30;99.90;;;;;;5032502;28;20033;-83
2021/11/05 07:07:39;;;;;;;24.30;13.88;;;8.70;99.90;;;;;;5049478;28;20025;-85
2021/11/05 07:10:06;;;;;;;25.13;14.27;;;8.30;99.90;;;;;;5028531;28;20052;-84
2021/11/05 07:12:32;;;;;;;20.48;13.07;;;8.30;99.90;;;;;;5031119;28;20030;-86
2021/11/05 07:14:58;;;;;;;24.35;15.00;;;8.30;99.90;;;;;;5040763;28;20528;-84
2021/11/05 07:17:24;;;;;;;33.20;16.73;;;8.30;99.90;;;;;;5027675;28;20040;-84
2021/11/05 07:19:50;;;;;;;28.13;16.20;;;8.30;99.90;;;;;;5025498;28;20033;-85
2021/11/05 07:22:16;;;;;;;25.45;14.55;;;8.40;99.90;;;;;;5027574;28;20017;-86
2021/11/05 07:24:41;;;;;;;24.60;14.98;;;9.10;99.90;;;;;;5033526;28;20071;-83
2021/11/05 07:27:08;;;;;;;26.90;14.57;;;8.40;99.90;;;;;;5026346;28;20026;-87
2021/11/05 07:29:33;;;;;;;22.83;13.55;;;8.40;99.90;;;;;;5021814;28;20037;-82
2021/11/05 07:32:02;;;;;;;23.85;13.52;;;8.50;99.90;;;;;;5036506;28;20033;-85
2021/11/05 07:34:32;;;;;;;31.05;13.63;;;8.40;99.90;;;;;;5027210;28;20038;-83
2021/11/05 07:37:03;;;;;;;26.47;14.47;;;8.50;99.90;;;;;;5023780;28;20033;-83
2021/11/05 07:39:30;;;;;;;26.85;13.98;;;8.50;99.90;;;;;;5025752;28;20029;-86
2021/11/05 07:41:56;;;;;;;24.88;14.45;;;8.50;99.90;;;;;;5034873;28;20033;-83
2021/11/05 07:44:22;;;;;;;21.40;13.27;;;8.70;99.90;;;;;;5021736;28;20025;-84
2021/11/05 07:46:48;;;;;;;23.20;13.77;;;8.70;99.90;;;;;;5036063;28;20049;-85
2021/11/05 07:49:15;;;;;;;25.80;14.93;;;8.80;99.90;;;;;;5022841;28;20562;-82
2021/11/05 07:51:41;;;;;;;25.58;14.52;;;8.80;99.90;;;;;;5020337;28;20025;-80
2021/11/05 07:54:07;;;;;;;23.67;13.82;;;8.90;99.90;;;;;;5020119;28;20025;-82
2021/11/05 07:56:36;;;;;;;23.90;13.88;;;8.80;99.90;;;;;;5011177;28;20396;-81
2021/11/05 07:59:04;;;;;;;23.52;13.35;;;10.70;99.90;;;;;;5020082;28;20075;-85
2021/11/05 08:01:29;;;;;;;25.10;13.85;;;9.50;99.90;;;;;;5039019;28;20079;-86
2021/11/05 08:03:55;;;;;;;23.23;13.25;;;8.80;99.90;;;;;;5020824;28;20185;-81
2021/11/05 08:06:21;;;;;;;22.63;13.20;;;8.80;99.90;;;;;;5045096;28;20048;-82
2021/11/05 08:08:47;;;;;;;29.27;13.50;;;8.80;99.90;;;;;;5025322;28;20856;-82
2021/11/05 08:11:13;;;;;;;22.00;13.88;;;8.90;99.90;;;;;;5021444;28;20052;-85
2021/11/05 08:13:39;;;;;;;23.20;13.35;;;9.00;99.90;;;;;;5019000;28;20574;-84
2021/11/05 08:16:05;;;;;;;22.40;13.63;;;9.50;99.90;;;;;;5026784;28;20033;-83
2021/11/05 08:18:30;;;;;;;21.30;13.38;;;9.00;99.90;;;;;;5032440;28;20037;-82
2021/11/05 08:20:56;;;;;;;24.58;13.48;;;8.90;99.90;;;;;;5037041;28;20063;-82
2021/11/05 08:23:22;;;;;;;22.58;13.48;;;9.20;99.90;;;;;;5033764;28;20089;-82
2021/11/05 08:25:48;;;;;;;20.80;13.32;;;9.00;99.90;;;;;;5044646;28;20048;-84
2021/11/05 08:28:19;;;;;;;23.30;13.30;;;9.00;99.90;;;;;;5026180;28;20041;-82
2021/11/05 08:30:46;;;;;;;24.10;13.10;;;8.90;99.90;;;;;;5031978;28;20341;-87
2021/11/05 08:33:11;;;;;;;22.42;13.48;;;9.20;99.90;;;;;;5023343;28;20071;-81
2021/11/05 08:35:39;;;;;;;23.70;14.00;;;9.00;99.90;;;;;;5039694;28;20033;-87
2021/11/05 08:38:08;;;;;;;22.30;13.98;;;9.00;99.90;;;;;;5053947;28;20043;-82
2021/11/05 08:40:35;;;;;;;23.97;13.57;;;9.10;99.90;;;;;;5059253;28;20017;-86
2021/11/05 08:43:00;;;;;;;26.50;15.07;;;9.10;99.90;;;;;;5052668;28;20044;-86
2021/11/05 08:45:26;;;;;;;23.30;13.82;;;9.50;99.90;;;;;;5046692;28;20029;-86
2021/11/05 08:47:52;;;;;;;24.08;14.43;;;9.50;99.90;;;;;;5050212;28;20025;-85
2021/11/05 08:50:22;;;;;;;22.23;13.18;;;9.60;99.90;;;;;;5028623;28;20053;-85
2021/11/05 08:52:47;;;;;;;21.50;13.00;;;9.20;99.90;;;;;;5037919;28;20028;-82
2021/11/05 08:55:14;;;;;;;23.92;14.40;;;9.60;99.90;;;;;;5035281;28;20032;-85
2021/11/05 08:57:40;;;;;;;23.23;13.48;;;9.40;99.90;;;;;;5030987;28;20024;-85
2021/11/05 09:00:13;;;;;;;25.05;14.80;;;11.00;99.90;;;;;;5083369;22;20036;-89
2021/11/05 09:02:40;;;;;;;25.77;14.55;;;9.50;99.90;;;;;;5104918;28;20032;-87
2021/11/05 09:05:34;;;;;;;22.33;13.88;;;9.90;99.90;;;;;;5102445;28;20036;-89
2021/11/05 09:08:04;;;;;;;20.05;13.57;;;9.70;99.90;;;;;;5069657;28;20616;-89
2021/11/05 09:10:30;;;;;;;24.60;13.50;;;9.60;99.90;;;;;;5065293;28;20029;-81
2021/11/05 09:12:56;;;;;;;20.92;13.68;;;11.00;99.90;;;;;;5083404;28;20071;-81
2021/11/05 09:15:24;;;;;;;20.38;12.15;;;11.20;99.90;;;;;;5078914;28;20039;-83
2021/11/05 09:17:54;;;;;;;23.35;13.63;;;10.60;99.90;;;;;;5079772;28;20478;-81
2021/11/05 09:20:21;;;;;;;24.52;14.70;;;10.90;99.90;;;;;;5082582;28;20021;-83
2021/11/05 09:22:47;;;;;;;23.58;12.65;;;10.70;99.90;;;;;;5065620;28;20718;-83
2021/11/05 09:25:13;;;;;;;20.20;12.63;;;10.90;99.90;;;;;;5064243;28;20386;-84
2021/11/05 09:27:40;;;;;;;20.95;12.52;;;11.00;99.90;;;;;;5058056;28;20043;-86
2021/11/05 09:30:10;;;;;;;18.73;12.20;;;11.30;99.90;;;;;;5063115;28;20037;-86
2021/11/05 09:32:36;;;;;;;;;;;9.70;99.90;;;;;;5080615;28;20099;-89
2021/11/05 09:35:03;;;;;;;26.60;16.40;;;9.80;99.90;;;;;;5077536;28;19916;-91
2021/11/05 09:37:29;;;;;;;16.88;9.63;;;9.80;99.90;;;;;;5079915;28;20028;-90
2021/11/05 09:40:03;;;;;;;15.70;10.68;;;10.60;99.90;;;;;;5080358;28;20021;-88
2021/11/05 09:42:35;;;;;;;20.10;11.10;;;9.90;99.90;;;;;;5076925;28;20028;-88
2021/11/05 09:45:06;;;;;;;15.82;10.20;;;10.50;99.90;;;;;;5072867;28;21197;-90
2021/11/05 09:47:41;;;;;;;20.90;11.25;;;9.90;99.90;;;;;;5060522;28;20111;-91
2021/11/05 09:50:24;;;;;;;16.00;10.45;;;10.20;99.90;;;;;;5073324;28;20032;-91
2021/11/05 09:52:58;;;;;;;17.77;10.82;;;10.30;99.90;;;;;;5078929;28;20495;-89
2021/11/05 09:55:24;;;;;;;16.65;9.63;;;10.60;99.90;;;;;;5089831;28;20049;-89
2021/11/05 09:57:55;;;;;;;16.98;9.32;;;11.90;99.90;;;;;;5087341;28;20058;-90
2021/11/05 10:00:25;;;;;;;15.45;9.18;;;10.50;99.90;;;;;;5076697;28;20021;-92
2021/11/05 10:02:57;;;;;;;14.52;8.77;;;11.70;99.90;;;;;;5095724;28;20025;-90
2021/11/05 10:05:23;;;;;;;15.05;9.25;;;10.50;99.90;;;;;;5082959;28;20036;-89
2021/11/05 10:07:59;;;;;;;14.40;9.43;;;11.70;99.90;;;;;;5087224;28;20036;-87
2021/11/05 10:10:37;;;;;;;17.98;10.15;;;10.50;99.90;;;;;;5098771;28;20032;-90
2021/11/05 10:13:23;;;;;;;15.55;10.07;;;10.30;99.90;;;;;;5103421;28;20039;-87
2021/11/05 10:15:51;;;;;;;15.95;9.38;;;10.30;99.90;;;;;;5097045;28;20149;-89
2021/11/05 10:18:36;;;;;;;14.63;10.07;;;10.40;99.90;;;;;;5076497;28;20062;-88
2021/11/05 10:21:13;;;;;;;15.13;9.30;;;10.70;99.90;;;;;;5094641;28;20056;-88
2021/11/05 10:23:50;;;;;;;16.80;9.55;;;10.60;99.90;;;;;;5071481;28;20496;-88
2021/11/05 10:26:28;;;;;;;14.30;8.95;;;10.70;99.90;;;;;;5089747;28;20048;-91
2021/11/05 10:28:55;;;;;;;14.90;8.48;;;11.10;99.90;;;;;;5088817;28;20063;-88
2021/11/05 10:31:25;;;;;;;15.18;8.85;;;11.80;99.90;;;;;;5090559;28;20111;-89
2021/11/05 10:33:51;;;;;;;14.90;10.02;;;11.40;99.90;;;;;;5071996;28;20032;-87
2021/11/05 10:36:23;;;;;;;12.75;8.60;;;11.60;99.90;;;;;;5075758;28;20505;-86
2021/11/05 10:39:01;;;;;;;14.52;8.93;;;11.80;99.90;;;;;;5076505;28;20444;-88
2021/11/05 10:41:29;;;;;;;13.82;8.18;;;12.00;99.90;;;;;;5067693;28;20048;-90
2021/11/05 10:43:59;;;;;;;14.48;8.57;;;12.90;99.90;;;;;;5078741;28;20505;-86
2021/11/05 10:46:30;;;;;;;15.32;8.57;;;12.00;99.90;;;;;;5072304;28;20032;-89
2021/11/05 10:49:18;;;;;;;11.98;8.18;;;11.50;99.90;;;;;;5076604;28;20032;-89
2021/11/05 10:51:46;;;;;;;12.13;8.00;;;11.40;99.90;;;;;;5086922;28;20121;-89
2021/11/05 10:54:12;;;;;;;11.27;7.00;;;11.40;99.90;;;;;;5074568;28;20032;-86
2021/11/05 10:56:43;;;;;;;10.52;6.20;;;13.00;99.90;;;;;;5070890;28;20028;-89
2021/11/05 10:59:11;;;;;;;10.15;6.25;;;10.90;99.90;;;;;;5067153;28;20077;-89
2021/11/05 11:01:39;;;;;;;10.30;6.50;;;12.60;99.90;;;;;;5054115;28;20042;-88
2021/11/05 11:04:08;;;;;;;9.80;6.88;;;11.40;99.90;;;;;;5074342;28;20033;-88
2021/11/05 11:06:43;;;;;;;9.80;6.75;;;11.40;99.90;;;;;;5068010;28;20124;-89
2021/11/05 11:09:21;;;;;;;11.27;7.57;;;11.40;99.90;;;;;;5072127;28;20068;-88
2021/11/05 11:12:02;;;;;;;11.02;7.28;;;11.20;99.90;;;;;;5085316;28;20028;-88
2021/11/05 11:14:35;;;;;;;10.73;7.13;;;11.20;99.90;;;;;;5069159;28;20122;-91
2021/11/05 11:17:06;;;;;;;11.50;7.00;;;12.50;99.90;;;;;;5073178;28;20335;-87
2021/11/05 11:19:44;;;;;;;11.13;7.22;;;11.20;99.90;;;;;;5072784;28;20036;-88
2021/11/05 11:22:16;;;;;;;10.20;6.78;;;11.40;99.90;;;;;;5071666;28;20039;-89
2021/11/05 11:24:42;;;;;;;12.43;7.22;;;11.80;99.90;;;;;;5092224;28;20039;-89
2021/11/05 11:27:12;;;;;;;10.82;6.75;;;11.20;99.90;;;;;;5079459;28;20025;-90
2021/11/05 11:29:37;;;;;;;10.05;6.63;;;11.40;99.90;;;;;;5095642;28;20020;-88
2021/11/05 11:32:07;;;;;;;12.43;7.55;;;12.50;99.90;;;;;;5075142;28;20064;-87
2021/11/05 11:34:36;;;;;;;10.00;6.32;;;11.40;99.90;;;;;;5092587;28;20067;-89
2021/11/05 11:37:02;;;;;;;10.57;6.70;;;12.50;99.90;;;;;;5091251;28;20090;-89
2021/11/05 11:39:33;;;;;;;9.70;6.13;;;11.50;99.90;;;;;;5075353;28;20037;-88
2021/11/05 11:42:05;;;;;;;10.32;6.03;;;11.40;99.90;;;;;;5070030;28;20090;-89
2021/11/05 11:44:34;;;;;;;10.18;6.07;;;11.30;99.90;;;;;;5061208;28;20029;-88
2021/11/05 11:47:13;;;;;;;9.02;5.18;;;11.30;99.90;;;;;;5074130;28;20037;-89
2021/11/05 11:49:38;;;;;;;8.70;4.97;;;11.30;99.90;;;;;;5081531;28;20028;-87
2021/11/05 11:52:28;;;;;;;8.70;5.07;;;10.40;99.90;;;;;;5092025;28;20077;-90
2021/11/05 11:55:00;;;;;;;7.90;4.43;;;12.30;99.90;;;;;;5072577;28;20774;-85
2021/11/05 11:57:29;;;;;;;6.93;4.55;;;11.50;99.90;;;;;;5094920;28;20063;-87
2021/11/05 12:00:25;;;;;;;10.00;4.65;;;11.60;99.90;;;;;;5103379;22;20063;-82
2021/11/05 12:03:28;;;;;;;7.57;4.40;;;11.70;99.90;;;;;;5081990;28;20045;-79
2021/11/05 12:06:00;;;;;;;7.70;5.00;;;11.70;99.90;;;;;;5079689;28;20027;-80
2021/11/05 12:08:42;;;;;;;9.02;4.78;;;11.70;99.90;;;;;;5057894;28;20040;-84
2021/11/05 12:11:09;;;;;;;7.78;4.55;;;11.60;99.90;;;;;;5053680;28;20029;-82
2021/11/05 12:13:34;;;;;;;7.00;4.40;;;11.60;99.90;;;;;;5080255;28;20605;-80
2021/11/05 12:16:09;;;;;;;6.85;4.47;;;11.50;99.90;;;;;;5059447;28;20092;-81
2021/11/05 12:21:44;;;;;;;6.57;4.53;;;11.50;99.90;;;;;;5065851;28;20029;-83
2021/11/05 12:24:13;;;;;;;7.63;4.70;;;11.60;99.90;;;;;;5077819;28;20025;-80
2021/11/05 12:27:00;;;;;;;9.05;5.20;;;11.70;99.90;;;;;;5068199;28;20033;-79
2021/11/05 12:29:32;;;;;;;15.15;5.88;;;11.70;99.90;;;;;;5063369;28;20257;-79
2021/11/05 12:32:19;;;;;;;8.63;4.75;;;12.00;99.90;;;;;;5072035;28;20033;-82
2021/11/05 12:34:53;;;;;;;8.70;3.90;;;12.10;99.90;;;;;;5061398;28;20055;-83
2021/11/05 12:37:40;;;;;;;30.38;7.53;;;12.20;99.90;;;;;;5076039;28;20492;-81
2021/11/05 12:40:21;;;;;;;9.82;5.05;;;12.10;99.90;;;;;;5045086;28;20040;-81
2021/11/05 12:42:53;;;;;;;5.97;4.28;;;12.10;99.90;;;;;;5070985;28;20041;-85
2021/11/05 12:45:21;;;;;;;7.05;4.93;;;12.40;99.90;;;;;;5055526;28;20032;-81
2021/11/05 12:47:50;;;;;;;7.55;4.30;;;12.30;99.90;;;;;;5054402;28;20086;-84